Pocasset, Massachusetts
Current Conditions -  °F | °C
As of 7:15 PM on Wednesday 26 Nov 2014 (Local Time) from KFMH Reporting Station
Heavy Rain Heavy Rain  
Wind Chill: 33°   Ceiling: 700
Heat Index: 43°   Visibility: 2.5mi
Dew Point: 43°   Wind: 26mph
Humidity: 100%   Direction: 40°NE
Pressure: 29.64"   Gusts: 38mph
Location:  41.69°N, 70.64°W
Report Text: KFMH 270015Z 04023G33KT 2 1/2SM +RA OVC007 06/06 A2964 RMK AO2
Loading
Personal Weather Stations






























Interactive Weather Map New forecast layout! Learn more

10-Day Weather Forecast

Advertisements
Track Severe Weather on mobile